Toonerville, Colorado
Current Conditions -  °F | °C
As of 2:53 AM on Sunday 23 Nov 2014 (Local Time) from KLHX Reporting Station
Clear Clear  
Wind Chill: 37°   Ceiling: Unl
Heat Index: 43°   Visibility: 10mi
Dew Point: 28°   Wind: 12mph
Humidity: 56%   Direction: 270°W
Pressure: 29.53"   Gusts: NA
Location:  37.8567°N, 103.111°W
Report Text: KLHX 230953Z AUTO 27010KT 10SM CLR 06/M02 A2953 RMK AO2 SLP965 T00611022 $
Loading
Personal Weather Stations






























Interactive Weather Map New forecast layout! Learn more

10-Day Weather Forecast

Advertisements
Track Severe Weather on mobile